sensor_id;sensor_type;location;lat;lon;timestamp;temperature;humidity
1301;DHT22;59099;48.806;9.160;2022-07-19T00:01:40;19.50;71.40
1301;DHT22;59099;48.806;9.160;2022-07-19T00:04:06;19.40;71.80
1301;DHT22;59099;48.806;9.160;2022-07-19T00:06:32;19.40;72.20
1301;DHT22;59099;48.806;9.160;2022-07-19T00:08:58;19.30;72.70
1301;DHT22;59099;48.806;9.160;2022-07-19T00:11:24;19.40;72.80
1301;DHT22;59099;48.806;9.160;2022-07-19T00:13:50;19.30;73.00
1301;DHT22;59099;48.806;9.160;2022-07-19T00:16:15;19.20;73.40
1301;DHT22;59099;48.806;9.160;2022-07-19T00:18:42;19.10;73.80
1301;DHT22;59099;48.806;9.160;2022-07-19T00:21:08;19.10;74.30
1301;DHT22;59099;48.806;9.160;2022-07-19T00:23:33;19.10;74.20
1301;DHT22;59099;48.806;9.160;2022-07-19T00:26:01;19.00;74.70
1301;DHT22;59099;48.806;9.160;2022-07-19T00:28:27;18.90;75.30
1301;DHT22;59099;48.806;9.160;2022-07-19T00:30:53;18.90;75.70
1301;DHT22;59099;48.806;9.160;2022-07-19T00:33:21;18.80;76.30
1301;DHT22;59099;48.806;9.160;2022-07-19T00:35:47;18.70;76.60
1301;DHT22;59099;48.806;9.160;2022-07-19T00:38:14;18.60;77.40
1301;DHT22;59099;48.806;9.160;2022-07-19T00:40:40;18.70;77.80
1301;DHT22;59099;48.806;9.160;2022-07-19T00:43:08;18.70;78.00
1301;DHT22;59099;48.806;9.160;2022-07-19T00:45:34;18.70;77.90
1301;DHT22;59099;48.806;9.160;2022-07-19T00:48:00;18.70;78.20
1301;DHT22;59099;48.806;9.160;2022-07-19T00:50:26;18.70;78.60
1301;DHT22;59099;48.806;9.160;2022-07-19T00:52:58;18.70;79.00
1301;DHT22;59099;48.806;9.160;2022-07-19T00:55:28;18.60;79.80
1301;DHT22;59099;48.806;9.160;2022-07-19T00:57:59;18.50;80.60
1301;DHT22;59099;48.806;9.160;2022-07-19T01:00:28;18.40;82.00
1301;DHT22;59099;48.806;9.160;2022-07-19T01:02:54;18.30;82.40
1301;DHT22;59099;48.806;9.160;2022-07-19T01:05:20;18.20;83.20
1301;DHT22;59099;48.806;9.160;2022-07-19T01:07:46;18.10;84.10
1301;DHT22;59099;48.806;9.160;2022-07-19T01:10:13;18.20;84.80
1301;DHT22;59099;48.806;9.160;2022-07-19T01:12:41;18.20;85.00
1301;DHT22;59099;48.806;9.160;2022-07-19T01:15:19;18.20;85.50
1301;DHT22;59099;48.806;9.160;2022-07-19T01:17:45;18.10;85.50
1301;DHT22;59099;48.806;9.160;2022-07-19T01:20:12;18.10;86.30
1301;DHT22;59099;48.806;9.160;2022-07-19T01:22:38;18.10;86.70
1301;DHT22;59099;48.806;9.160;2022-07-19T01:25:05;18.20;87.10
1301;DHT22;59099;48.806;9.160;2022-07-19T01:27:31;18.20;87.10
1301;DHT22;59099;48.806;9.160;2022-07-19T01:29:57;18.20;87.50
1301;DHT22;59099;48.806;9.160;2022-07-19T01:32:22;18.20;87.70
1301;DHT22;59099;48.806;9.160;2022-07-19T01:34:48;18.20;88.20
1301;DHT22;59099;48.806;9.160;2022-07-19T01:37:14;18.30;88.80
1301;DHT22;59099;48.806;9.160;2022-07-19T01:39:40;18.40;88.20
1301;DHT22;59099;48.806;9.160;2022-07-19T01:42:05;18.40;88.60
1301;DHT22;59099;48.806;9.160;2022-07-19T01:44:31;18.30;88.90
1301;DHT22;59099;48.806;9.160;2022-07-19T01:46:57;18.30;89.50
1301;DHT22;59099;48.806;9.160;2022-07-19T01:49:23;18.20;90.00
1301;DHT22;59099;48.806;9.160;2022-07-19T01:51:49;18.20;90.40
1301;DHT22;59099;48.806;9.160;2022-07-19T01:54:14;18.20;90.70
1301;DHT22;59099;48.806;9.160;2022-07-19T01:56:43;18.20;90.90
1301;DHT22;59099;48.806;9.160;2022-07-19T01:59:09;18.10;91.30
1301;DHT22;59099;48.806;9.160;2022-07-19T02:01:35;18.10;91.60
1301;DHT22;59099;48.806;9.160;2022-07-19T02:04:01;18.20;91.60
1301;DHT22;59099;48.806;9.160;2022-07-19T02:06:27;18.10;91.60
1301;DHT22;59099;48.806;9.160;2022-07-19T02:08:54;18.10;91.60
1301;DHT22;59099;48.806;9.160;2022-07-19T02:11:20;18.10;91.80
1301;DHT22;59099;48.806;9.160;2022-07-19T02:14:01;18.00;92.10
1301;DHT22;59099;48.806;9.160;2022-07-19T02:16:27;17.90;92.40
1301;DHT22;59099;48.806;9.160;2022-07-19T02:18:54;17.90;92.60
1301;DHT22;59099;48.806;9.160;2022-07-19T02:21:30;17.80;92.80
1301;DHT22;59099;48.806;9.160;2022-07-19T02:23:56;17.70;93.30
1301;DHT22;59099;48.806;9.160;2022-07-19T02:26:22;17.70;93.70
1301;DHT22;59099;48.806;9.160;2022-07-19T02:28:47;17.70;94.10
1301;DHT22;59099;48.806;9.160;2022-07-19T02:31:13;17.60;94.40
1301;DHT22;59099;48.806;9.160;2022-07-19T02:33:39;17.50;94.90
1301;DHT22;59099;48.806;9.160;2022-07-19T02:36:05;17.40;95.40
1301;DHT22;59099;48.806;9.160;2022-07-19T02:38:31;17.40;95.60
1301;DHT22;59099;48.806;9.160;2022-07-19T02:40:57;17.40;95.90
1301;DHT22;59099;48.806;9.160;2022-07-19T02:43:23;17.30;96.50
1301;DHT22;59099;48.806;9.160;2022-07-19T02:45:49;17.20;97.00
1301;DHT22;59099;48.806;9.160;2022-07-19T02:48:15;17.10;97.50
1301;DHT22;59099;48.806;9.160;2022-07-19T02:50:41;17.10;98.00
1301;DHT22;59099;48.806;9.160;2022-07-19T02:53:07;17.10;98.60
1301;DHT22;59099;48.806;9.160;2022-07-19T02:55:33;17.10;98.80
1301;DHT22;59099;48.806;9.160;2022-07-19T02:57:59;17.10;99.00
1301;DHT22;59099;48.806;9.160;2022-07-19T03:00:25;17.10;99.40
1301;DHT22;59099;48.806;9.160;2022-07-19T03:02:51;17.00;99.90
1301;DHT22;59099;48.806;9.160;2022-07-19T03:05:17;16.90;99.90
1301;DHT22;59099;48.806;9.160;2022-07-19T03:07:43;16.90;99.90
1301;DHT22;59099;48.806;9.160;2022-07-19T03:10:09;16.90;99.90
1301;DHT22;59099;48.806;9.160;2022-07-19T03:12:35;16.80;99.90
1301;DHT22;59099;48.806;9.160;2022-07-19T03:15:01;16.80;99.90
1301;DHT22;59099;48.806;9.160;2022-07-19T03:17:27;16.70;99.90
1301;DHT22;59099;48.806;9.160;2022-07-19T03:19:53;16.70;99.90
1301;DHT22;59099;48.806;9.160;2022-07-19T03:22:19;16.70;99.90
1301;DHT22;59099;48.806;9.160;2022-07-19T03:24:44;16.70;99.90
1301;DHT22;59099;48.806;9.160;2022-07-19T03:27:10;16.70;99.90
1301;DHT22;59099;48.806;9.160;2022-07-19T03:29:36;16.60;99.90
1301;DHT22;59099;48.806;9.160;2022-07-19T03:32:01;16.60;99.90
1301;DHT22;59099;48.806;9.160;2022-07-19T03:34:27;16.50;99.90
1301;DHT22;59099;48.806;9.160;2022-07-19T03:36:54;16.50;99.90
1301;DHT22;59099;48.806;9.160;2022-07-19T03:39:20;16.50;99.90
1301;DHT22;59099;48.806;9.160;2022-07-19T03:41:46;16.60;99.90
1301;DHT22;59099;48.806;9.160;2022-07-19T03:44:14;16.60;99.90
1301;DHT22;59099;48.806;9.160;2022-07-19T03:46:40;16.70;99.90
1301;DHT22;59099;48.806;9.160;2022-07-19T03:49:06;16.60;99.90
1301;DHT22;59099;48.806;9.160;2022-07-19T03:51:31;16.60;99.90
1301;DHT22;59099;48.806;9.160;2022-07-19T03:53:57;16.60;99.90
1301;DHT22;59099;48.806;9.160;2022-07-19T03:56:23;16.50;99.90
1301;DHT22;59099;48.806;9.160;2022-07-19T03:58:49;16.50;99.90
1301;DHT22;59099;48.806;9.160;2022-07-19T04:01:15;16.50;99.90
1301;DHT22;59099;48.806;9.160;2022-07-19T04:03:41;16.50;99.90
1301;DHT22;59099;48.806;9.160;2022-07-19T04:06:09;16.50;99.90
1301;DHT22;59099;48.806;9.160;2022-07-19T04:08:35;16.50;99.90
1301;DHT22;59099;48.806;9.160;2022-07-19T04:11:02;16.60;99.90
1301;DHT22;59099;48.806;9.160;2022-07-19T04:13:28;16.60;99.90
1301;DHT22;59099;48.806;9.160;2022-07-19T04:15:54;16.50;99.90
1301;DHT22;59099;48.806;9.160;2022-07-19T04:18:20;16.50;99.90
1301;DHT22;59099;48.806;9.160;2022-07-19T04:20:46;16.50;99.90
1301;DHT22;59099;48.806;9.160;2022-07-19T04:23:11;16.60;99.90
1301;DHT22;59099;48.806;9.160;2022-07-19T04:25:37;16.60;99.90
1301;DHT22;59099;48.806;9.160;2022-07-19T04:28:03;16.60;99.90
1301;DHT22;59099;48.806;9.160;2022-07-19T04:30:29;16.50;99.90
1301;DHT22;59099;48.806;9.160;2022-07-19T04:32:55;16.50;99.90
1301;DHT22;59099;48.806;9.160;2022-07-19T04:35:21;16.50;99.90
1301;DHT22;59099;48.806;9.160;2022-07-19T04:37:47;16.50;99.90
1301;DHT22;59099;48.806;9.160;2022-07-19T04:40:12;16.50;99.90
1301;DHT22;59099;48.806;9.160;2022-07-19T04:42:38;16.60;99.90
1301;DHT22;59099;48.806;9.160;2022-07-19T04:45:04;16.70;99.90
1301;DHT22;59099;48.806;9.160;2022-07-19T04:47:31;16.90;99.90
1301;DHT22;59099;48.806;9.160;2022-07-19T04:49:56;16.90;99.90
1301;DHT22;59099;48.806;9.160;2022-07-19T04:52:22;16.90;99.90
1301;DHT22;59099;48.806;9.160;2022-07-19T04:54:48;17.10;99.90
1301;DHT22;59099;48.806;9.160;2022-07-19T04:57:14;17.10;99.90
1301;DHT22;59099;48.806;9.160;2022-07-19T04:59:40;17.00;99.90
1301;DHT22;59099;48.806;9.160;2022-07-19T05:02:08;17.20;99.90
1301;DHT22;59099;48.806;9.160;2022-07-19T05:04:37;17.20;99.90
1301;DHT22;59099;48.806;9.160;2022-07-19T05:07:03;17.20;99.90
1301;DHT22;59099;48.806;9.160;2022-07-19T05:09:29;17.20;99.90
1301;DHT22;59099;48.806;9.160;2022-07-19T05:11:55;17.30;99.90
1301;DHT22;59099;48.806;9.160;2022-07-19T05:14:21;17.40;99.90
1301;DHT22;59099;48.806;9.160;2022-07-19T05:16:47;17.50;99.90
1301;DHT22;59099;48.806;9.160;2022-07-19T05:19:16;17.60;99.90
1301;DHT22;59099;48.806;9.160;2022-07-19T05:21:42;17.80;99.90
1301;DHT22;59099;48.806;9.160;2022-07-19T05:24:08;17.80;99.90
1301;DHT22;59099;48.806;9.160;2022-07-19T05:26:34;17.80;99.90
1301;DHT22;59099;48.806;9.160;2022-07-19T05:29:01;17.90;99.90
1301;DHT22;59099;48.806;9.160;2022-07-19T05:31:27;18.10;99.90
1301;DHT22;59099;48.806;9.160;2022-07-19T05:33:55;18.20;99.90
1301;DHT22;59099;48.806;9.160;2022-07-19T05:36:24;18.20;99.90
1301;DHT22;59099;48.806;9.160;2022-07-19T05:38:50;18.30;99.90
1301;DHT22;59099;48.806;9.160;2022-07-19T05:41:16;18.40;99.90
1301;DHT22;59099;48.806;9.160;2022-07-19T05:43:42;18.50;99.90
1301;DHT22;59099;48.806;9.160;2022-07-19T05:46:09;18.70;99.90
1301;DHT22;59099;48.806;9.160;2022-07-19T05:48:35;18.90;99.90
1301;DHT22;59099;48.806;9.160;2022-07-19T05:51:01;19.00;99.90
1301;DHT22;59099;48.806;9.160;2022-07-19T05:53:27;19.10;99.90
1301;DHT22;59099;48.806;9.160;2022-07-19T05:55:53;19.20;99.90
1301;DHT22;59099;48.806;9.160;2022-07-19T05:58:19;19.20;99.90
1301;DHT22;59099;48.806;9.160;2022-07-19T06:00:46;19.30;99.90
1301;DHT22;59099;48.806;9.160;2022-07-19T06:03:30;19.40;99.90
1301;DHT22;59099;48.806;9.160;2022-07-19T06:05:56;19.50;99.90
1301;DHT22;59099;48.806;9.160;2022-07-19T06:08:22;19.60;99.90
1301;DHT22;59099;48.806;9.160;2022-07-19T06:10:48;19.70;99.90
1301;DHT22;59099;48.806;9.160;2022-07-19T06:13:15;19.90;99.90
1301;DHT22;59099;48.806;9.160;2022-07-19T06:15:41;20.10;99.90
1301;DHT22;59099;48.806;9.160;2022-07-19T06:18:07;20.20;99.90
1301;DHT22;59099;48.806;9.160;2022-07-19T06:20:33;20.40;99.90
1301;DHT22;59099;48.806;9.160;2022-07-19T06:22:59;20.50;99.90
1301;DHT22;59099;48.806;9.160;2022-07-19T06:25:24;20.60;99.90
1301;DHT22;59099;48.806;9.160;2022-07-19T06:27:50;20.80;99.90
1301;DHT22;59099;48.806;9.160;2022-07-19T06:30:16;20.90;99.90
1301;DHT22;59099;48.806;9.160;2022-07-19T06:32:42;21.00;99.90
1301;DHT22;59099;48.806;9.160;2022-07-19T06:35:08;21.20;99.90
1301;DHT22;59099;48.806;9.160;2022-07-19T06:37:35;21.40;99.70
1301;DHT22;59099;48.806;9.160;2022-07-19T06:40:01;21.60;99.00
1301;DHT22;59099;48.806;9.160;2022-07-19T06:42:28;21.70;98.80
1301;DHT22;59099;48.806;9.160;2022-07-19T06:44:59;21.90;98.30
1301;DHT22;59099;48.806;9.160;2022-07-19T06:47:29;22.10;99.00
1301;DHT22;59099;48.806;9.160;2022-07-19T06:49:55;22.20;97.10
1301;DHT22;59099;48.806;9.160;2022-07-19T06:52:21;22.30;96.80
1301;DHT22;59099;48.806;9.160;2022-07-19T06:54:48;22.50;95.50
1301;DHT22;59099;48.806;9.160;2022-07-19T06:57:14;22.70;93.40
1301;DHT22;59099;48.806;9.160;2022-07-19T06:59:42;22.90;93.50
1301;DHT22;59099;48.806;9.160;2022-07-19T07:02:08;23.00;93.40
1301;DHT22;59099;48.806;9.160;2022-07-19T07:04:36;23.20;89.60
1301;DHT22;59099;48.806;9.160;2022-07-19T07:07:02;23.40;90.40
1301;DHT22;59099;48.806;9.160;2022-07-19T07:09:28;23.50;90.60
1301;DHT22;59099;48.806;9.160;2022-07-19T07:11:54;23.70;85.70
1301;DHT22;59099;48.806;9.160;2022-07-19T07:14:19;23.80;82.80
1301;DHT22;59099;48.806;9.160;2022-07-19T07:16:45;24.00;81.80
1301;DHT22;59099;48.806;9.160;2022-07-19T07:19:11;24.30;79.50
1301;DHT22;59099;48.806;9.160;2022-07-19T07:21:47;24.50;78.00
1301;DHT22;59099;48.806;9.160;2022-07-19T07:24:14;24.60;78.80
1301;DHT22;59099;48.806;9.160;2022-07-19T07:26:40;24.70;76.00
1301;DHT22;59099;48.806;9.160;2022-07-19T07:29:06;24.80;77.70
1301;DHT22;59099;48.806;9.160;2022-07-19T07:31:31;25.00;72.00
1301;DHT22;59099;48.806;9.160;2022-07-19T07:33:57;25.10;72.90
1301;DHT22;59099;48.806;9.160;2022-07-19T07:36:23;25.10;72.50
1301;DHT22;59099;48.806;9.160;2022-07-19T07:38:48;25.20;75.40
1301;DHT22;59099;48.806;9.160;2022-07-19T07:41:16;25.40;74.10
1301;DHT22;59099;48.806;9.160;2022-07-19T07:43:45;25.50;74.30
1301;DHT22;59099;48.806;9.160;2022-07-19T07:46:11;25.70;69.90
1301;DHT22;59099;48.806;9.160;2022-07-19T07:48:38;25.80;69.60
1301;DHT22;59099;48.806;9.160;2022-07-19T07:51:05;26.00;67.10
1301;DHT22;59099;48.806;9.160;2022-07-19T07:53:31;26.10;67.70
1301;DHT22;59099;48.806;9.160;2022-07-19T07:55:57;26.20;67.20
1301;DHT22;59099;48.806;9.160;2022-07-19T07:58:23;26.20;63.70
1301;DHT22;59099;48.806;9.160;2022-07-19T08:00:59;26.30;64.60
1301;DHT22;59099;48.806;9.160;2022-07-19T08:03:24;26.40;61.40
1301;DHT22;59099;48.806;9.160;2022-07-19T08:05:50;26.50;61.00
1301;DHT22;59099;48.806;9.160;2022-07-19T08:08:19;26.60;60.00
1301;DHT22;59099;48.806;9.160;2022-07-19T08:10:53;26.80;59.70
1301;DHT22;59099;48.806;9.160;2022-07-19T08:13:29;26.90;60.20
1301;DHT22;59099;48.806;9.160;2022-07-19T08:15:55;26.90;59.20
1301;DHT22;59099;48.806;9.160;2022-07-19T08:18:21;27.00;58.20
1301;DHT22;59099;48.806;9.160;2022-07-19T08:20:50;27.20;58.70
1301;DHT22;59099;48.806;9.160;2022-07-19T08:23:16;27.40;57.30
1301;DHT22;59099;48.806;9.160;2022-07-19T08:25:42;27.60;56.40
1301;DHT22;59099;48.806;9.160;2022-07-19T08:28:07;27.60;56.60
1301;DHT22;59099;48.806;9.160;2022-07-19T08:30:33;27.70;57.20
1301;DHT22;59099;48.806;9.160;2022-07-19T08:33:00;27.90;56.40
1301;DHT22;59099;48.806;9.160;2022-07-19T08:35:26;28.10;57.40
1301;DHT22;59099;48.806;9.160;2022-07-19T08:37:55;28.20;55.50
1301;DHT22;59099;48.806;9.160;2022-07-19T08:40:21;28.30;55.00
1301;DHT22;59099;48.806;9.160;2022-07-19T08:42:47;28.40;54.40
1301;DHT22;59099;48.806;9.160;2022-07-19T08:45:14;28.40;54.60
1301;DHT22;59099;48.806;9.160;2022-07-19T08:47:40;28.60;52.50
1301;DHT22;59099;48.806;9.160;2022-07-19T08:50:15;28.70;52.20
1301;DHT22;59099;48.806;9.160;2022-07-19T08:52:41;29.00;51.20
1301;DHT22;59099;48.806;9.160;2022-07-19T08:55:08;29.10;51.20
1301;DHT22;59099;48.806;9.160;2022-07-19T08:57:35;29.10;51.90
1301;DHT22;59099;48.806;9.160;2022-07-19T09:00:19;29.10;50.90
1301;DHT22;59099;48.806;9.160;2022-07-19T09:03:06;29.30;50.50
1301;DHT22;59099;48.806;9.160;2022-07-19T09:05:32;29.30;50.80
1301;DHT22;59099;48.806;9.160;2022-07-19T09:08:13;29.40;50.20
1301;DHT22;59099;48.806;9.160;2022-07-19T09:10:44;29.50;50.00
1301;DHT22;59099;48.806;9.160;2022-07-19T09:13:31;29.60;50.10
1301;DHT22;59099;48.806;9.160;2022-07-19T09:15:57;29.80;51.10
1301;DHT22;59099;48.806;9.160;2022-07-19T09:18:24;29.90;50.50
1301;DHT22;59099;48.806;9.160;2022-07-19T09:20:52;30.00;50.30
1301;DHT22;59099;48.806;9.160;2022-07-19T09:23:19;30.00;52.70
1301;DHT22;59099;48.806;9.160;2022-07-19T09:28:15;30.10;49.10
1301;DHT22;59099;48.806;9.160;2022-07-19T09:30:44;30.20;49.40
1301;DHT22;59099;48.806;9.160;2022-07-19T09:35:39;30.30;48.80
1301;DHT22;59099;48.806;9.160;2022-07-19T09:40:41;30.40;48.10
1301;DHT22;59099;48.806;9.160;2022-07-19T09:43:07;30.50;47.80
1301;DHT22;59099;48.806;9.160;2022-07-19T09:45:34;30.60;47.70
1301;DHT22;59099;48.806;9.160;2022-07-19T09:48:00;30.70;47.90
1301;DHT22;59099;48.806;9.160;2022-07-19T09:50:29;30.90;47.70
1301;DHT22;59099;48.806;9.160;2022-07-19T09:53:05;31.00;46.50
1301;DHT22;59099;48.806;9.160;2022-07-19T09:55:35;31.10;46.60
1301;DHT22;59099;48.806;9.160;2022-07-19T09:58:01;31.10;46.30
1301;DHT22;59099;48.806;9.160;2022-07-19T10:00:30;31.10;47.90
1301;DHT22;59099;48.806;9.160;2022-07-19T10:03:00;31.30;47.30
1301;DHT22;59099;48.806;9.160;2022-07-19T10:05:27;31.50;48.10
1301;DHT22;59099;48.806;9.160;2022-07-19T10:07:54;31.70;47.10
1301;DHT22;59099;48.806;9.160;2022-07-19T10:10:22;31.70;45.40
1301;DHT22;59099;48.806;9.160;2022-07-19T10:12:49;31.80;45.30
1301;DHT22;59099;48.806;9.160;2022-07-19T10:15:24;31.90;45.50
1301;DHT22;59099;48.806;9.160;2022-07-19T10:19:03;32.00;46.80
1301;DHT22;59099;48.806;9.160;2022-07-19T10:25:43;32.30;52.50
1301;DHT22;59099;48.806;9.160;2022-07-19T10:31:35;32.80;47.60
1301;DHT22;59099;48.806;9.160;2022-07-19T10:48:18;34.60;53.40
1301;DHT22;59099;48.806;9.160;2022-07-19T10:57:36;38.80;45.30
1301;DHT22;59099;48.806;9.160;2022-07-19T11:01:30;39.60;42.50
1301;DHT22;59099;48.806;9.160;2022-07-19T11:05:06;40.30;44.00
1301;DHT22;59099;48.806;9.160;2022-07-19T11:11:48;41.60;35.40
1301;DHT22;59099;48.806;9.160;2022-07-19T11:14:52;41.70;40.30
1301;DHT22;59099;48.806;9.160;2022-07-19T11:18:03;41.80;40.30
1301;DHT22;59099;48.806;9.160;2022-07-19T11:20:35;43.10;34.10
1301;DHT22;59099;48.806;9.160;2022-07-19T11:23:03;43.10;40.70
1301;DHT22;59099;48.806;9.160;2022-07-19T11:25:37;43.10;33.30
1301;DHT22;59099;48.806;9.160;2022-07-19T11:28:21;42.10;32.80
1301;DHT22;59099;48.806;9.160;2022-07-19T11:30:47;41.70;33.10
1301;DHT22;59099;48.806;9.160;2022-07-19T11:33:20;41.70;32.90
1301;DHT22;59099;48.806;9.160;2022-07-19T11:35:56;41.60;36.90
1301;DHT22;59099;48.806;9.160;2022-07-19T11:38:44;42.30;41.00
1301;DHT22;59099;48.806;9.160;2022-07-19T11:41:24;43.00;37.20
1301;DHT22;59099;48.806;9.160;2022-07-19T11:44:07;43.80;33.80
1301;DHT22;59099;48.806;9.160;2022-07-19T11:46:41;43.50;34.60
1301;DHT22;59099;48.806;9.160;2022-07-19T11:49:10;44.10;32.80
1301;DHT22;59099;48.806;9.160;2022-07-19T11:51:59;45.20;35.50
1301;DHT22;59099;48.806;9.160;2022-07-19T11:54:27;46.00;35.80
1301;DHT22;59099;48.806;9.160;2022-07-19T11:56:55;46.00;34.40
1301;DHT22;59099;48.806;9.160;2022-07-19T11:59:23;46.30;34.50
1301;DHT22;59099;48.806;9.160;2022-07-19T12:01:54;46.10;34.00
1301;DHT22;59099;48.806;9.160;2022-07-19T12:04:20;46.10;36.10
1301;DHT22;59099;48.806;9.160;2022-07-19T12:06:50;46.40;34.60
1301;DHT22;59099;48.806;9.160;2022-07-19T12:09:26;46.10;31.60
1301;DHT22;59099;48.806;9.160;2022-07-19T12:11:58;45.80;29.60
1301;DHT22;59099;48.806;9.160;2022-07-19T12:14:32;45.20;30.00
1301;DHT22;59099;48.806;9.160;2022-07-19T12:17:14;43.70;30.90
1301;DHT22;59099;48.806;9.160;2022-07-19T12:19:42;44.10;37.90
1301;DHT22;59099;48.806;9.160;2022-07-19T12:22:38;44.60;35.80
1301;DHT22;59099;48.806;9.160;2022-07-19T12:25:08;45.10;31.50
1301;DHT22;59099;48.806;9.160;2022-07-19T12:27:35;45.80;32.00
1301;DHT22;59099;48.806;9.160;2022-07-19T12:30:03;46.10;32.00
1301;DHT22;59099;48.806;9.160;2022-07-19T12:32:38;46.60;31.80
1301;DHT22;59099;48.806;9.160;2022-07-19T12:35:12;45.00;30.60
1301;DHT22;59099;48.806;9.160;2022-07-19T12:37:45;44.60;32.50
1301;DHT22;59099;48.806;9.160;2022-07-19T12:40:33;44.90;37.80
1301;DHT22;59099;48.806;9.160;2022-07-19T12:43:21;44.10;32.50
1301;DHT22;59099;48.806;9.160;2022-07-19T12:48:42;43.20;37.40
1301;DHT22;59099;48.806;9.160;2022-07-19T12:51:14;42.80;33.90
1301;DHT22;59099;48.806;9.160;2022-07-19T12:54:07;42.60;39.10
1301;DHT22;59099;48.806;9.160;2022-07-19T12:56:42;43.10;34.70
1301;DHT22;59099;48.806;9.160;2022-07-19T12:59:18;43.10;37.20
1301;DHT22;59099;48.806;9.160;2022-07-19T13:02:21;44.20;32.90
1301;DHT22;59099;48.806;9.160;2022-07-19T13:05:28;45.40;32.00
1301;DHT22;59099;48.806;9.160;2022-07-19T13:08:24;45.50;35.00
1301;DHT22;59099;48.806;9.160;2022-07-19T13:11:07;47.10;33.10
1301;DHT22;59099;48.806;9.160;2022-07-19T13:14:06;48.90;29.80
1301;DHT22;59099;48.806;9.160;2022-07-19T13:17:08;48.90;28.10
1301;DHT22;59099;48.806;9.160;2022-07-19T13:22:49;49.90;30.30
1301;DHT22;59099;48.806;9.160;2022-07-19T13:25:27;50.50;29.50
1301;DHT22;59099;48.806;9.160;2022-07-19T13:28:03;51.10;32.00
1301;DHT22;59099;48.806;9.160;2022-07-19T13:30:30;51.50;27.60
1301;DHT22;59099;48.806;9.160;2022-07-19T13:33:17;52.10;28.60
1301;DHT22;59099;48.806;9.160;2022-07-19T13:35:59;50.60;27.60
1301;DHT22;59099;48.806;9.160;2022-07-19T13:38:30;50.70;27.90
1301;DHT22;59099;48.806;9.160;2022-07-19T13:40:59;50.50;28.70
1301;DHT22;59099;48.806;9.160;2022-07-19T13:43:49;51.40;29.60
1301;DHT22;59099;48.806;9.160;2022-07-19T13:49:37;50.40;31.50
1301;DHT22;59099;48.806;9.160;2022-07-19T13:52:14;50.90;29.90
1301;DHT22;59099;48.806;9.160;2022-07-19T13:54:49;51.10;28.90
1301;DHT22;59099;48.806;9.160;2022-07-19T13:57:18;51.70;29.40
1301;DHT22;59099;48.806;9.160;2022-07-19T13:59:44;52.30;27.80
1301;DHT22;59099;48.806;9.160;2022-07-19T14:02:20;52.60;30.00
1301;DHT22;59099;48.806;9.160;2022-07-19T14:04:46;52.50;29.30
1301;DHT22;59099;48.806;9.160;2022-07-19T14:07:14;52.00;27.60
1301;DHT22;59099;48.806;9.160;2022-07-19T14:09:57;52.30;27.20
1301;DHT22;59099;48.806;9.160;2022-07-19T14:12:23;52.30;29.70
1301;DHT22;59099;48.806;9.160;2022-07-19T14:14:52;50.50;27.20
1301;DHT22;59099;48.806;9.160;2022-07-19T14:17:51;50.20;27.50
1301;DHT22;59099;48.806;9.160;2022-07-19T14:21:02;49.50;33.80
1301;DHT22;59099;48.806;9.160;2022-07-19T14:24:15;50.30;28.50
1301;DHT22;59099;48.806;9.160;2022-07-19T14:27:01;50.80;28.90
1301;DHT22;59099;48.806;9.160;2022-07-19T14:29:37;51.00;28.00
1301;DHT22;59099;48.806;9.160;2022-07-19T14:33:01;50.70;28.20
1301;DHT22;59099;48.806;9.160;2022-07-19T14:38:55;48.50;29.60
1301;DHT22;59099;48.806;9.160;2022-07-19T14:45:12;49.00;30.00
1301;DHT22;59099;48.806;9.160;2022-07-19T14:48:04;49.70;28.80
1301;DHT22;59099;48.806;9.160;2022-07-19T14:50:41;50.20;28.10
1301;DHT22;59099;48.806;9.160;2022-07-19T14:53:30;50.10;29.30
1301;DHT22;59099;48.806;9.160;2022-07-19T14:56:02;50.30;28.40
1301;DHT22;59099;48.806;9.160;2022-07-19T14:58:37;51.10;28.30
1301;DHT22;59099;48.806;9.160;2022-07-19T15:01:41;51.50;27.60
1301;DHT22;59099;48.806;9.160;2022-07-19T15:05:18;52.00;27.50
1301;DHT22;59099;48.806;9.160;2022-07-19T15:08:25;52.00;27.00
1301;DHT22;59099;48.806;9.160;2022-07-19T15:11:19;51.00;28.00
1301;DHT22;59099;48.806;9.160;2022-07-19T15:13:45;49.10;26.80
1301;DHT22;59099;48.806;9.160;2022-07-19T15:16:37;48.50;31.60
1301;DHT22;59099;48.806;9.160;2022-07-19T15:19:45;48.70;28.20
1301;DHT22;59099;48.806;9.160;2022-07-19T15:22:48;48.90;27.90
1301;DHT22;59099;48.806;9.160;2022-07-19T15:29:15;48.60;29.20
1301;DHT22;59099;48.806;9.160;2022-07-19T15:39:12;50.60;26.60
1301;DHT22;59099;48.806;9.160;2022-07-19T15:41:54;50.50;27.80
1301;DHT22;59099;48.806;9.160;2022-07-19T15:44:47;50.70;30.00
1301;DHT22;59099;48.806;9.160;2022-07-19T15:48:00;50.50;29.40
1301;DHT22;59099;48.806;9.160;2022-07-19T15:50:56;50.20;26.30
1301;DHT22;59099;48.806;9.160;2022-07-19T15:54:23;50.00;30.20
1301;DHT22;59099;48.806;9.160;2022-07-19T15:57:51;49.30;30.00
1301;DHT22;59099;48.806;9.160;2022-07-19T16:00:52;49.10;32.00
1301;DHT22;59099;48.806;9.160;2022-07-19T16:03:28;49.30;29.20
1301;DHT22;59099;48.806;9.160;2022-07-19T16:06:27;49.70;28.60
1301;DHT22;59099;48.806;9.160;2022-07-19T16:10:03;49.90;31.60
1301;DHT22;59099;48.806;9.160;2022-07-19T16:13:03;50.30;27.10
1301;DHT22;59099;48.806;9.160;2022-07-19T16:16:10;50.70;31.00
1301;DHT22;59099;48.806;9.160;2022-07-19T16:19:05;49.60;27.10
1301;DHT22;59099;48.806;9.160;2022-07-19T16:21:31;48.70;30.00
1301;DHT22;59099;48.806;9.160;2022-07-19T16:23:57;49.00;31.50
1301;DHT22;59099;48.806;9.160;2022-07-19T16:26:23;48.00;26.80
1301;DHT22;59099;48.806;9.160;2022-07-19T16:28:48;48.10;29.30
1301;DHT22;59099;48.806;9.160;2022-07-19T16:31:15;48.10;27.40
1301;DHT22;59099;48.806;9.160;2022-07-19T16:33:41;47.70;28.00
1301;DHT22;59099;48.806;9.160;2022-07-19T16:36:07;47.50;30.40
1301;DHT22;59099;48.806;9.160;2022-07-19T16:38:33;47.40;32.30
1301;DHT22;59099;48.806;9.160;2022-07-19T16:40:59;47.60;30.90
1301;DHT22;59099;48.806;9.160;2022-07-19T16:43:24;47.80;28.20
1301;DHT22;59099;48.806;9.160;2022-07-19T16:45:50;47.60;27.80
1301;DHT22;59099;48.806;9.160;2022-07-19T16:48:17;47.60;32.10
1301;DHT22;59099;48.806;9.160;2022-07-19T16:50:43;47.50;30.00
1301;DHT22;59099;48.806;9.160;2022-07-19T16:53:10;47.00;30.10
1301;DHT22;59099;48.806;9.160;2022-07-19T16:55:36;45.90;27.70
1301;DHT22;59099;48.806;9.160;2022-07-19T16:58:03;46.10;29.40
1301;DHT22;59099;48.806;9.160;2022-07-19T17:00:29;46.50;31.00
1301;DHT22;59099;48.806;9.160;2022-07-19T17:02:55;46.80;31.60
1301;DHT22;59099;48.806;9.160;2022-07-19T17:05:21;46.80;28.40
1301;DHT22;59099;48.806;9.160;2022-07-19T17:07:51;46.50;31.40
1301;DHT22;59099;48.806;9.160;2022-07-19T17:10:17;46.50;32.80
1301;DHT22;59099;48.806;9.160;2022-07-19T17:12:47;46.80;29.30
1301;DHT22;59099;48.806;9.160;2022-07-19T17:15:12;46.80;29.00
1301;DHT22;59099;48.806;9.160;2022-07-19T17:17:38;46.90;29.80
1301;DHT22;59099;48.806;9.160;2022-07-19T17:20:05;46.70;28.50
1301;DHT22;59099;48.806;9.160;2022-07-19T17:22:32;46.50;31.40
1301;DHT22;59099;48.806;9.160;2022-07-19T17:24:58;46.60;30.70